This is the latest recevied weather packets stored in our database for station/object DG0PX-12. If no packets are shown the sender has not sent any weather packets the latest 10 day(s).
| Time | Temp. | Humidity | Pressure | Rain* | Wind** | Luminosity | Snow |
|---|---|---|---|---|---|---|---|
| 1787749170 | 36.11° C | 28% | 951.2 hPa | - | - | - | - |
| 1787748270 | 33.33° C | 34% | 951 hPa | - | - | - | - |
| 1787747370 | 31.11° C | 38% | 951.1 hPa | - | - | - | - |
| 1787746470 | 31.67° C | 37% | 951.4 hPa | - | - | - | - |
| 1787745570 | 33.33° C | 36% | 951.5 hPa | - | - | - | - |
| 1787744670 | 29.44° C | 48% | 951.1 hPa | - | - | - | - |
| 1787743769 | 28.89° C | 48% | 951.2 hPa | - | - | - | - |
| 1787742869 | 28.89° C | 50% | 951.3 hPa | - | - | - | - |
| 1787741969 | 26.11° C | 59% | 951.2 hPa | - | - | - | - |
| 1787741069 | 29.44° C | 46% | 951.3 hPa | - | - | - | - |
| 1787740169 | 27.22° C | 55% | 951.4 hPa | - | - | - | - |
| 1787739269 | 26.67° C | 61% | 951.2 hPa | - | - | - | - |
| 1787738369 | 25.56° C | 61% | 951.3 hPa | - | - | - | - |
| 1787737469 | 28.89° C | 40% | 951.9 hPa | - | - | - | - |
| 1787736569 | 30° C | 38% | 951.8 hPa | - | - | - | - |
| 1787735669 | 29.44° C | 42% | 951.7 hPa | - | - | - | - |
| 1787734769 | 28.89° C | 45% | 951.6 hPa | - | - | - | - |
| 1787733869 | 26.67° C | 54% | 951.3 hPa | - | - | - | - |
| 1787732969 | 27.22° C | 52% | 951.2 hPa | - | - | - | - |
| 1787732069 | 27.78° C | 49% | 951.2 hPa | - | - | - | - |
| 1787731169 | 26.11° C | 56% | 951 hPa | - | - | - | - |
| 1787730269 | 26.11° C | 52% | 951.1 hPa | - | - | - | - |
| 1787729368 | 27.22° C | 48% | 951 hPa | - | - | - | - |
| 1787728468 | 26.11° C | 53% | 950.6 hPa | - | - | - | - |
| 1787727568 | 25.56° C | 56% | 950.5 hPa | - | - | - | - |
* Rain since midnight (hover to see other rain measurements)
** Current wind speed in m/s (hover to see current wind gust speed)